Time;durP1;ratioP1;P1;durP2;ratioP2;P2;SDS_P1;SDS_P2;PMS_P1;PMS_P2;Temp;Humidity;BMP_temperature;BMP_pressure;BME280_temperature;BME280_humidity;BME280_pressure;Samples;Min_cycle;Max_cycle;Signal;HPM_P1;HPM_P2
2021/08/23 00:00:04;;;;;;;6.10;4.88;;;;;;;27.31;49.67;100954.09;4974311;28;20050;-63
2021/08/23 00:02:31;;;;;;;7.82;4.80;;;;;;;27.35;49.36;100947.28;4974740;28;20047;-64
2021/08/23 00:04:58;;;;;;;9.55;5.05;;;;;;;27.37;49.35;100947.06;4974287;28;20093;-63
2021/08/23 00:07:24;;;;;;;8.65;4.97;;;;;;;27.39;49.24;100945.06;4957103;28;20053;-63
2021/08/23 00:09:51;;;;;;;8.02;6.13;;;;;;;27.37;49.25;100941.69;4974296;28;20061;-63
2021/08/23 00:12:18;;;;;;;8.32;5.80;;;;;;;27.40;49.29;100944.03;4974173;28;20101;-64
2021/08/23 00:14:46;;;;;;;10.88;5.55;;;;;;;27.40;49.15;100938.66;4974120;28;20051;-63
2021/08/23 00:17:12;;;;;;;10.77;5.68;;;;;;;27.42;49.11;100941.97;4974087;28;20062;-64
2021/08/23 00:19:39;;;;;;;8.77;5.70;;;;;;;27.40;49.17;100941.34;4974259;28;20054;-64
2021/08/23 00:24:51;;;;;;;11.80;5.70;;;;;;;27.42;49.20;100930.38;4973837;28;20069;-64
2021/08/23 00:27:18;;;;;;;12.23;5.95;;;;;;;27.43;49.57;100934.75;4973889;28;20485;-63
2021/08/23 00:29:46;;;;;;;7.78;5.72;;;;;;;27.38;49.52;100930.72;4974149;28;20500;-63
2021/08/23 00:32:14;;;;;;;9.75;5.47;;;;;;;27.40;49.50;100927.88;4973911;28;20047;-64
2021/08/23 00:34:40;;;;;;;8.07;5.70;;;;;;;27.40;49.70;100932.41;4973907;28;20043;-63
2021/08/23 00:37:07;;;;;;;10.20;5.45;;;;;;;27.40;49.73;100930.56;4973728;28;20047;-63
2021/08/23 00:39:35;;;;;;;10.55;6.38;;;;;;;27.42;49.50;100927.69;4973892;28;20051;-63
2021/08/23 00:42:05;;;;;;;7.28;5.18;;;;;;;27.44;49.62;100933.69;4973797;28;20125;-63
2021/08/23 00:44:36;;;;;;;5.85;4.70;;;;;;;27.42;49.83;100935.75;4973812;28;20084;-64
2021/08/23 00:47:04;;;;;;;8.70;5.00;;;;;;;27.38;50.17;100932.59;4973657;28;20050;-64
2021/08/23 00:49:32;;;;;;;9.05;5.88;;;;;;;27.34;50.36;100936.69;4973620;28;20058;-63
2021/08/23 00:52:00;;;;;;;7.40;4.82;;;;;;;27.33;50.43;100935.84;4973603;28;20043;-64
2021/08/23 00:54:27;;;;;;;8.23;5.68;;;;;;;27.30;50.40;100936.25;4973603;28;20053;-63
2021/08/23 00:56:54;;;;;;;13.50;5.80;;;;;;;27.29;50.41;100939.97;4973658;28;20054;-64
2021/08/23 00:59:26;;;;;;;9.45;6.38;;;;;;;27.28;50.40;100934.78;4973437;28;20463;-63
2021/08/23 01:02:26;;;;;;;11.13;6.18;;;;;;;27.30;50.41;100933.56;4973445;28;20054;-64
2021/08/23 01:05:03;;;;;;;8.77;6.47;;;;;;;27.28;50.51;100940.16;4973371;28;20105;-63
2021/08/23 01:07:38;;;;;;;9.88;6.85;;;;;;;27.26;50.75;100931.44;4956716;28;20413;-64
2021/08/23 01:10:10;;;;;;;11.63;6.88;;;;;;;27.23;50.95;100929.94;4972566;28;20054;-64
2021/08/23 01:12:37;;;;;;;8.23;6.03;;;;;;;27.19;51.05;100934.88;4973389;28;20105;-63
2021/08/23 01:15:04;;;;;;;6.95;5.90;;;;;;;27.16;50.86;100931.75;4973287;28;20556;-64
2021/08/23 01:17:31;;;;;;;8.70;6.60;;;;;;;27.13;50.82;100932.97;4973464;28;20053;-63
2021/08/23 01:20:01;;;;;;;8.02;5.80;;;;;;;27.11;50.46;100923.41;4973338;28;20046;-64
2021/08/23 01:22:33;;;;;;;8.88;5.63;;;;;;;27.12;50.42;100931.31;4973327;28;20061;-64
2021/08/23 01:25:02;;;;;;;8.13;5.57;;;;;;;27.09;50.33;100929.00;4973177;28;20425;-64
2021/08/23 01:27:33;;;;;;;8.90;5.93;;;;;;;27.07;50.16;100928.38;4973226;28;20047;-63
2021/08/23 01:30:11;;;;;;;6.68;5.22;;;;;;;27.08;50.15;100935.41;4973231;28;20492;-64
2021/08/23 01:32:39;;;;;;;11.90;6.07;;;;;;;27.06;50.16;100934.78;4973242;28;20133;-63
2021/08/23 01:35:07;;;;;;;11.05;6.18;;;;;;;27.08;50.12;100931.88;4973230;28;20051;-64
2021/08/23 01:37:37;;;;;;;9.40;6.10;;;;;;;27.06;50.23;100934.78;4973126;28;20051;-64
2021/08/23 01:40:07;;;;;;;8.80;5.75;;;;;;;27.03;50.21;100935.13;4972977;28;20051;-63
2021/08/23 01:42:34;;;;;;;9.20;6.57;;;;;;;27.01;50.27;100931.81;4973185;28;20047;-63
2021/08/23 01:45:01;;;;;;;8.07;6.47;;;;;;;26.99;50.10;100941.94;4973081;28;20058;-63
2021/08/23 01:47:27;;;;;;;9.07;6.28;;;;;;;27.03;50.24;100937.81;4972996;28;20054;-64
2021/08/23 01:49:54;;;;;;;7.93;5.95;;;;;;;27.05;49.94;100943.88;4973066;28;20065;-63
2021/08/23 01:52:21;;;;;;;9.88;6.00;;;;;;;27.02;50.02;100941.53;4973142;28;20046;-64
2021/08/23 01:54:47;;;;;;;8.82;6.07;;;;;;;27.02;49.89;100937.00;4973130;28;20050;-63
2021/08/23 01:57:18;;;;;;;7.38;5.75;;;;;;;27.05;49.81;100942.00;4972938;28;20505;-64
2021/08/23 01:59:48;;;;;;;11.32;6.20;;;;;;;27.09;49.86;100947.03;4972994;28;20050;-63
2021/08/23 02:02:15;;;;;;;10.98;6.35;;;;;;;27.07;49.77;100944.53;4972908;28;20050;-64
2021/08/23 02:04:42;;;;;;;13.10;6.75;;;;;;;27.08;49.89;100946.16;4972771;28;20053;-64
2021/08/23 02:07:09;;;;;;;7.97;6.50;;;;;;;27.07;49.69;100952.59;4972805;28;20047;-63
2021/08/23 02:09:35;;;;;;;9.73;6.55;;;;;;;27.11;49.56;100942.25;4972872;28;20047;-63
2021/08/23 02:12:03;;;;;;;12.10;7.03;;;;;;;27.10;49.64;100944.13;4972701;28;20485;-64
2021/08/23 02:14:29;;;;;;;15.00;7.68;;;;;;;27.09;49.67;100942.47;4973076;28;20066;-63
2021/08/23 02:16:57;;;;;;;11.15;6.90;;;;;;;27.08;49.56;100943.47;4972988;28;20556;-63
2021/08/23 02:19:24;;;;;;;9.98;5.55;;;;;;;27.08;49.73;100946.16;4972726;28;20110;-63
2021/08/23 02:21:53;;;;;;;9.27;5.95;;;;;;;27.09;49.63;100945.16;4974037;28;20051;-64
2021/08/23 02:24:21;;;;;;;11.55;6.80;;;;;;;27.07;49.71;100941.84;4975990;28;20394;-63
2021/08/23 02:26:49;;;;;;;13.32;6.95;;;;;;;27.07;49.52;100943.66;4976308;28;20047;-64
2021/08/23 02:29:16;;;;;;;19.67;9.02;;;;;;;27.02;49.68;100937.00;4976191;28;20055;-63
2021/08/23 02:31:42;;;;;;;14.73;8.68;;;;;;;26.97;49.74;100936.75;4976040;28;20508;-63
2021/08/23 02:34:09;;;;;;;17.08;8.30;;;;;;;26.98;49.98;100932.19;4976261;28;20457;-63
2021/08/23 02:36:36;;;;;;;8.30;6.22;;;;;;;27.00;49.81;100924.75;4976163;28;20441;-63
2021/08/23 02:39:04;;;;;;;10.45;5.88;;;;;;;27.00;49.62;100924.75;4975937;28;20516;-64
2021/08/23 02:41:32;;;;;;;7.38;5.38;;;;;;;27.01;49.96;100934.50;4975988;28;20047;-63
2021/08/23 02:43:59;;;;;;;9.70;6.45;;;;;;;26.95;49.93;100930.72;4975858;28;20058;-63
2021/08/23 02:46:26;;;;;;;9.45;6.68;;;;;;;26.95;49.81;100929.88;4975788;28;20051;-63
2021/08/23 02:48:53;;;;;;;9.07;6.25;;;;;;;26.96;49.69;100932.38;4975831;28;20086;-63
2021/08/23 02:51:20;;;;;;;6.80;5.50;;;;;;;26.96;49.86;100932.38;4975627;28;20051;-63
2021/08/23 02:53:46;;;;;;;8.60;6.05;;;;;;;26.95;49.89;100932.56;4975878;28;20047;-63
2021/08/23 02:56:13;;;;;;;11.18;5.82;;;;;;;26.96;49.89;100929.69;4975684;28;20058;-63
2021/08/23 02:58:40;;;;;;;9.00;5.35;;;;;;;26.94;49.95;100938.97;4975578;28;20054;-64
2021/08/23 03:01:06;;;;;;;8.32;5.20;;;;;;;26.93;49.82;100932.78;4975498;28;20058;-64
2021/08/23 03:03:36;;;;;;;12.93;6.38;;;;;;;26.93;49.67;100924.69;4970955;28;20047;-64
2021/08/23 03:06:03;;;;;;;10.10;5.30;;;;;;;26.92;49.55;100935.63;4971571;28;20055;-63
2021/08/23 03:08:29;;;;;;;9.80;5.07;;;;;;;26.90;49.43;100935.84;4971806;28;20057;-64
2021/08/23 03:11:08;;;;;;;6.50;4.25;;;;;;;26.91;49.42;100934.00;4971963;28;20098;-64
2021/08/23 03:13:35;;;;;;;8.55;4.35;;;;;;;26.93;49.16;100938.16;4971676;28;20057;-63
2021/08/23 03:16:03;;;;;;;6.60;4.13;;;;;;;26.93;49.00;100937.31;4971889;28;20129;-64
2021/08/23 03:18:30;;;;;;;7.00;4.47;;;;;;;26.92;48.78;100931.09;4972231;28;20047;-64
2021/08/23 03:20:57;;;;;;;6.35;4.50;;;;;;;26.92;48.92;100938.31;4971646;28;20050;-64
2021/08/23 03:23:24;;;;;;;6.53;4.07;;;;;;;26.93;48.83;100935.47;4971352;28;20047;-64
2021/08/23 03:25:51;;;;;;;8.77;4.47;;;;;;;26.93;48.89;100932.78;4972069;28;20058;-64
2021/08/23 03:28:18;;;;;;;6.65;4.50;;;;;;;26.94;48.87;100945.19;4971664;28;20065;-63
2021/08/23 03:30:45;;;;;;;7.30;5.53;;;;;;;26.90;49.06;100943.91;4971518;28;20512;-64
2021/08/23 03:33:12;;;;;;;5.93;4.75;;;;;;;26.89;49.16;100945.78;4970836;28;20055;-63
2021/08/23 03:35:39;;;;;;;6.38;4.50;;;;;;;26.89;49.08;100948.47;4971888;28;20062;-63
2021/08/23 03:38:06;;;;;;;7.47;4.20;;;;;;;26.87;49.06;100947.00;4971541;28;20055;-64
2021/08/23 03:40:33;;;;;;;6.85;4.30;;;;;;;26.89;48.78;100945.78;4971669;28;20047;-63
2021/08/23 03:43:00;;;;;;;8.15;5.35;;;;;;;26.85;48.88;100957.94;4971389;28;20464;-63
2021/08/23 03:45:27;;;;;;;8.77;5.47;;;;;;;26.80;49.10;100959.53;4971124;28;20051;-63
2021/08/23 03:47:53;;;;;;;8.60;5.10;;;;;;;26.78;49.15;100958.88;4971197;28;20065;-64
2021/08/23 03:50:21;;;;;;;9.73;5.30;;;;;;;26.76;49.02;100959.06;4971371;28;20142;-63
2021/08/23 03:52:49;;;;;;;6.32;5.20;;;;;;;26.78;49.02;100958.88;4971258;28;20042;-64
2021/08/23 03:55:15;;;;;;;7.60;5.10;;;;;;;26.78;49.33;100948.13;4971089;28;20092;-63
2021/08/23 03:57:42;;;;;;;8.43;5.25;;;;;;;26.77;49.15;100947.28;4971370;28;20054;-64
2021/08/23 04:00:10;;;;;;;7.47;5.25;;;;;;;26.76;48.87;100945.63;4970971;28;20497;-64
2021/08/23 04:02:37;;;;;;;7.75;5.10;;;;;;;26.75;49.12;100949.31;4971423;28;20496;-64
2021/08/23 04:05:04;;;;;;;8.18;5.13;;;;;;;26.75;49.26;100954.72;4970962;28;20066;-64
2021/08/23 04:07:31;;;;;;;7.78;5.07;;;;;;;26.75;49.07;100951.19;4971094;28;20046;-63
2021/08/23 04:09:58;;;;;;;8.82;4.80;;;;;;;26.75;49.05;100952.03;4970910;28;20493;-64
2021/08/23 04:12:24;;;;;;;8.05;4.65;;;;;;;26.71;49.17;100951.53;4971158;28;20499;-64
2021/08/23 04:14:51;;;;;;;6.05;4.43;;;;;;;26.66;49.66;100943.19;4970701;28;20098;-64
2021/08/23 04:17:18;;;;;;;9.00;4.88;;;;;;;26.61;49.51;100948.28;4970811;28;20055;-63
2021/08/23 04:19:44;;;;;;;8.68;4.50;;;;;;;26.57;49.43;100941.63;4970791;28;20061;-64
2021/08/23 04:22:11;;;;;;;6.25;4.25;;;;;;;26.55;49.67;100946.34;4970619;28;20051;-63
2021/08/23 04:24:39;;;;;;;8.15;4.45;;;;;;;26.56;49.56;100948.03;4970352;28;20055;-64
2021/08/23 04:27:06;;;;;;;6.88;4.63;;;;;;;26.56;49.97;100951.56;4970509;28;20448;-63
2021/08/23 04:29:33;;;;;;;7.38;4.88;;;;;;;26.53;49.62;100943.84;4970430;28;20047;-64
2021/08/23 04:31:59;;;;;;;7.88;4.93;;;;;;;26.52;49.98;100961.03;4970511;28;20093;-64
2021/08/23 04:34:26;;;;;;;7.25;4.78;;;;;;;26.52;49.90;100957.50;4970599;28;20051;-63
2021/08/23 04:36:53;;;;;;;12.48;6.05;;;;;;;26.49;49.91;100955.19;4970500;28;20058;-64
2021/08/23 04:39:20;;;;;;;9.05;5.75;;;;;;;26.46;50.04;100960.94;4970416;28;20101;-63
2021/08/23 04:41:46;;;;;;;5.85;5.25;;;;;;;26.47;50.13;100966.13;4970594;28;20899;-64
2021/08/23 04:44:13;;;;;;;7.25;5.50;;;;;;;26.49;50.17;100968.66;4970175;28;20047;-63
2021/08/23 04:46:39;;;;;;;8.45;5.65;;;;;;;26.51;50.11;100975.53;4970180;28;20105;-63
2021/08/23 04:49:06;;;;;;;11.93;6.15;;;;;;;26.51;50.15;100974.66;4970029;28;20054;-64
2021/08/23 04:51:33;;;;;;;9.73;5.90;;;;;;;26.53;50.29;100976.16;4970236;28;20049;-63
2021/08/23 04:54:00;;;;;;;11.48;6.60;;;;;;;26.55;50.31;100973.28;4970429;28;20053;-63
2021/08/23 04:56:26;;;;;;;8.50;6.47;;;;;;;26.52;50.27;100974.47;4970047;28;20054;-63
2021/08/23 04:58:53;;;;;;;9.77;6.47;;;;;;;26.55;50.55;100978.66;4970033;28;20043;-64
2021/08/23 05:01:19;;;;;;;9.10;6.25;;;;;;;26.52;50.52;100993.31;4970119;28;20491;-64
2021/08/23 05:03:46;;;;;;;7.97;6.70;;;;;;;26.52;50.60;100982.56;4970122;28;20504;-63
2021/08/23 05:06:13;;;;;;;10.25;6.63;;;;;;;26.53;50.63;100986.09;4969905;28;20065;-64
2021/08/23 05:08:40;;;;;;;10.35;7.05;;;;;;;26.50;50.71;100981.94;4970115;28;20054;-63
2021/08/23 05:11:07;;;;;;;9.00;6.15;;;;;;;26.49;50.77;100982.13;4969991;28;20053;-66
2021/08/23 05:13:34;;;;;;;12.35;7.00;;;;;;;26.52;50.67;100984.41;4969912;28;20054;-66
2021/08/23 05:16:01;;;;;;;7.40;5.85;;;;;;;26.58;50.50;100994.44;4969969;28;20386;-66
2021/08/23 05:18:28;;;;;;;9.85;6.60;;;;;;;26.55;50.62;101001.03;4970066;28;20050;-66
2021/08/23 05:20:54;;;;;;;9.88;6.28;;;;;;;26.56;50.73;101002.72;4969969;28;20054;-67
2021/08/23 05:23:25;;;;;;;8.68;6.13;;;;;;;26.57;50.86;101000.84;4969639;28;20105;-66
2021/08/23 05:25:51;;;;;;;9.48;6.68;;;;;;;26.56;50.99;101005.41;4969790;28;20511;-66
2021/08/23 05:28:18;;;;;;;8.80;6.15;;;;;;;26.49;51.18;101000.97;4969850;28;20481;-66
2021/08/23 05:30:45;;;;;;;8.43;5.80;;;;;;;26.49;51.21;101007.16;4969772;28;20109;-66
2021/08/23 05:33:12;;;;;;;11.38;6.70;;;;;;;26.48;51.09;101016.25;4969804;28;20054;-66
2021/08/23 05:35:38;;;;;;;11.65;7.40;;;;;;;26.43;51.39;101015.16;4969902;28;20061;-66
2021/08/23 05:38:05;;;;;;;10.85;6.22;;;;;;;26.35;51.57;101005.31;4969898;28;20409;-65
2021/08/23 05:40:32;;;;;;;9.98;7.13;;;;;;;26.35;51.94;101006.13;4969529;28;20494;-66
2021/08/23 05:43:00;;;;;;;12.20;6.65;;;;;;;26.27;52.88;101017.00;4969760;28;20051;-66
2021/08/23 05:45:26;;;;;;;9.15;6.80;;;;;;;26.21;53.31;101015.88;4969591;28;20110;-66
2021/08/23 05:47:53;;;;;;;10.07;7.43;;;;;;;26.19;53.81;101011.69;4969555;28;20053;-63
2021/08/23 05:50:21;;;;;;;12.15;6.88;;;;;;;26.16;54.17;101006.69;4969527;28;20078;-64
2021/08/23 05:52:47;;;;;;;12.77;7.43;;;;;;;26.10;54.50;101024.38;4969835;28;20279;-64
2021/08/23 05:55:14;;;;;;;14.05;7.80;;;;;;;26.04;54.70;101036.69;4969454;28;20057;-64
2021/08/23 05:57:41;;;;;;;13.43;7.88;;;;;;;26.00;55.13;101042.59;4972320;28;20054;-64
2021/08/23 06:00:09;;;;;;;11.93;8.65;;;;;;;26.01;55.46;101049.66;4973320;28;20792;-64
2021/08/23 06:02:35;;;;;;;11.05;7.82;;;;;;;25.88;55.92;101052.97;4973410;28;20065;-64
2021/08/23 06:05:02;;;;;;;8.85;6.40;;;;;;;25.72;56.25;101051.22;4973840;28;20074;-64
2021/08/23 06:07:29;;;;;;;6.40;5.43;;;;;;;25.68;56.14;101055.28;4973097;28;20568;-64
2021/08/23 06:09:55;;;;;;;7.32;4.55;;;;;;;25.58;56.16;101059.06;4973175;28;20145;-64
2021/08/23 06:12:22;;;;;;;4.97;3.65;;;;;;;25.61;55.56;101057.88;4972824;28;20077;-64
2021/08/23 06:14:48;;;;;;;5.57;3.42;;;;;;;25.50;55.69;101063.66;4973282;28;20295;-64
2021/08/23 06:17:15;;;;;;;2.95;1.75;;;;;;;25.39;55.76;101063.00;4973065;28;20101;-65
2021/08/23 06:19:42;;;;;;;5.07;1.80;;;;;;;25.37;55.45;101050.78;4972818;28;20049;-64
2021/08/23 06:22:08;;;;;;;3.95;1.83;;;;;;;25.35;55.20;101063.53;4972466;28;20058;-64
2021/08/23 06:24:35;;;;;;;5.55;2.22;;;;;;;25.33;55.04;101061.03;4972577;28;20054;-64
2021/08/23 06:27:02;;;;;;;4.82;2.40;;;;;;;25.30;55.03;101057.84;4972422;28;20102;-64
2021/08/23 06:29:28;;;;;;;4.97;2.45;;;;;;;25.31;55.16;101072.97;4972800;28;20093;-64
2021/08/23 06:31:55;;;;;;;3.17;2.00;;;;;;;25.22;55.50;101080.22;4972916;28;20497;-64
2021/08/23 06:34:22;;;;;;;3.72;1.88;;;;;;;25.16;55.69;101081.75;4972831;28;20668;-64
2021/08/23 06:36:48;;;;;;;3.83;1.60;;;;;;;25.14;55.74;101083.78;4972880;28;20061;-64
2021/08/23 06:39:15;;;;;;;3.17;1.73;;;;;;;25.10;55.84;101093.19;4972647;28;20054;-64
2021/08/23 06:41:46;;;;;;;5.20;1.83;;;;;;;25.11;55.54;101097.56;4972515;28;20057;-64
2021/08/23 06:44:12;;;;;;;1.63;1.00;;;;;;;25.06;55.37;101097.25;4972433;28;20051;-64
2021/08/23 06:46:40;;;;;;;3.22;1.10;;;;;;;25.03;55.20;101106.47;4972085;28;20054;-65
2021/08/23 06:49:07;;;;;;;2.13;1.13;;;;;;;25.13;54.84;101108.13;4972487;28;20464;-64
2021/08/23 06:51:33;;;;;;;2.15;1.10;;;;;;;25.20;54.49;101093.81;4972581;28;20505;-64
2021/08/23 06:54:00;;;;;;;2.45;0.98;;;;;;;25.18;54.50;101095.00;4972444;28;20105;-64
2021/08/23 06:56:27;;;;;;;2.50;1.00;;;;;;;25.23;54.33;101092.63;4972268;28;20400;-64
2021/08/23 06:58:57;;;;;;;2.95;1.30;;;;;;;25.33;54.02;101087.91;4972400;28;20046;-64
2021/08/23 07:01:26;;;;;;;3.80;1.08;;;;;;;25.36;53.89;101095.63;4972114;28;20042;-64
2021/08/23 07:03:54;;;;;;;2.28;0.90;;;;;;;25.32;53.84;101101.47;4972050;28;20051;-64
2021/08/23 07:06:21;;;;;;;1.30;0.90;;;;;;;25.38;53.62;101101.66;4972028;28;20059;-64
2021/08/23 07:08:47;;;;;;;2.55;1.10;;;;;;;25.38;53.56;101104.34;4971295;28;20113;-64
2021/08/23 07:11:14;;;;;;;2.88;1.15;;;;;;;25.44;53.48;101100.13;4971972;28;20058;-64
2021/08/23 07:13:41;;;;;;;3.88;1.50;;;;;;;25.48;53.62;101101.41;4972130;28;20047;-64
2021/08/23 07:16:08;;;;;;;4.57;1.63;;;;;;;25.48;53.43;101104.13;4972147;28;20493;-64
2021/08/23 07:18:35;;;;;;;5.32;1.10;;;;;;;25.57;53.38;101102.22;4972171;28;20134;-64
2021/08/23 07:21:02;;;;;;;2.67;1.35;;;;;;;25.56;53.44;101112.16;4971697;28;20055;-64
2021/08/23 07:23:29;;;;;;;2.55;1.30;;;;;;;25.50;53.65;101118.22;4971735;28;20055;-65
2021/08/23 07:25:56;;;;;;;3.60;1.23;;;;;;;25.53;53.61;101122.41;4971850;28;20046;-64
2021/08/23 07:28:25;;;;;;;2.33;1.50;;;;;;;25.56;53.49;101128.25;4971492;28;20043;-64
2021/08/23 07:30:52;;;;;;;3.70;1.52;;;;;;;25.48;53.68;101135.53;4971768;28;20429;-64
2021/08/23 07:33:19;;;;;;;4.05;1.92;;;;;;;25.43;53.97;101134.22;4971500;28;20129;-65
2021/08/23 07:35:46;;;;;;;3.28;1.88;;;;;;;25.52;53.72;101139.53;4971684;28;20047;-64
2021/08/23 07:38:12;;;;;;;6.00;2.40;;;;;;;25.47;54.19;101147.28;4971504;28;20051;-64
2021/08/23 07:40:39;;;;;;;6.18;1.83;;;;;;;25.43;54.59;101147.66;4971742;28;20061;-64
2021/08/23 07:43:06;;;;;;;4.68;2.00;;;;;;;25.47;54.53;101152.66;4971266;28;20055;-64
2021/08/23 07:45:34;;;;;;;4.28;2.03;;;;;;;25.42;54.92;101142.47;4971374;28;20105;-64
2021/08/23 07:48:02;;;;;;;3.05;2.08;;;;;;;25.48;54.89;101138.22;4971544;28;20046;-64
2021/08/23 07:50:29;;;;;;;7.00;2.30;;;;;;;25.51;55.28;101133.34;4971143;28;20047;-64
2021/08/23 07:52:56;;;;;;;5.28;2.58;;;;;;;25.64;54.70;101132.75;4971130;28;20424;-64
2021/08/23 07:55:23;;;;;;;4.13;2.42;;;;;;;25.72;54.74;101126.50;4971084;28;20105;-64
2021/08/23 07:57:50;;;;;;;5.45;2.45;;;;;;;25.91;54.51;101127.88;4970817;28;20050;-64
2021/08/23 08:00:20;;;;;;;4.47;2.60;;;;;;;26.02;54.27;101135.53;4970920;28;20054;-64
2021/08/23 08:02:46;;;;;;;4.43;2.92;;;;;;;26.13;54.29;101120.88;4971495;28;20098;-64
2021/08/23 08:05:13;;;;;;;5.90;3.15;;;;;;;26.20;54.00;101116.41;4971309;28;20047;-64
2021/08/23 08:07:41;;;;;;;6.30;2.97;;;;;;;26.29;53.64;101108.28;4971171;28;20398;-64
2021/08/23 08:10:10;;;;;;;7.20;2.90;;;;;;;26.43;53.35;101118.22;4970714;28;20066;-64
2021/08/23 08:12:37;;;;;;;4.53;2.80;;;;;;;26.49;53.10;101114.00;4970825;28;20053;-64
2021/08/23 08:15:06;;;;;;;7.80;3.78;;;;;;;26.51;53.01;101120.84;4970850;28;20043;-64
2021/08/23 08:17:32;;;;;;;4.40;2.67;;;;;;;26.49;53.17;101124.75;4970615;28;20054;-64
2021/08/23 08:19:59;;;;;;;2.72;2.28;;;;;;;26.47;53.30;101126.78;4970529;28;20051;-64
2021/08/23 08:22:26;;;;;;;5.55;2.75;;;;;;;26.34;53.47;101138.16;4970659;28;20047;-64
2021/08/23 08:24:53;;;;;;;7.13;3.00;;;;;;;26.24;54.08;101138.41;4970588;28;20523;-64
2021/08/23 08:27:19;;;;;;;5.88;3.45;;;;;;;26.15;54.30;101132.25;4970528;28;20054;-64
2021/08/23 08:29:46;;;;;;;4.45;2.85;;;;;;;26.10;54.54;101131.97;4970694;28;20460;-64
2021/08/23 08:32:13;;;;;;;4.50;2.83;;;;;;;26.07;54.77;101126.97;4970758;28;20051;-64
2021/08/23 08:34:39;;;;;;;6.25;3.25;;;;;;;26.05;54.93;101124.44;4970620;28;20043;-64
2021/08/23 08:37:06;;;;;;;4.72;2.88;;;;;;;26.08;54.92;101128.63;4970508;28;20457;-64
2021/08/23 08:39:32;;;;;;;6.72;3.60;;;;;;;26.07;54.84;101124.28;4970593;28;20552;-64
2021/08/23 08:41:59;;;;;;;5.97;3.00;;;;;;;26.10;54.40;101126.59;4970373;28;20082;-64
2021/08/23 08:44:28;;;;;;;4.88;3.05;;;;;;;26.09;54.07;101124.91;4970189;28;20563;-64
2021/08/23 08:46:56;;;;;;;3.67;2.10;;;;;;;26.10;53.79;101134.66;4970298;28;20080;-64
2021/08/23 08:49:23;;;;;;;5.03;2.20;;;;;;;26.19;53.36;101140.81;4970183;28;20468;-64
2021/08/23 08:51:50;;;;;;;3.42;1.92;;;;;;;26.32;52.49;101137.50;4970225;28;20054;-64
2021/08/23 08:54:17;;;;;;;4.20;2.17;;;;;;;26.45;51.76;101137.72;4970365;28;20053;-64
2021/08/23 08:56:44;;;;;;;3.10;1.60;;;;;;;26.75;50.58;101137.78;4970459;28;20074;-64
2021/08/23 08:59:12;;;;;;;5.53;1.52;;;;;;;27.06;49.28;101131.41;4970053;28;20101;-64
2021/08/23 09:01:38;;;;;;;3.97;1.60;;;;;;;27.45;48.22;101134.81;4970016;28;20055;-64
2021/08/23 09:04:05;;;;;;;3.42;1.50;;;;;;;27.57;47.85;101127.09;4970102;28;20093;-64
2021/08/23 09:06:55;;;;;;;3.70;1.48;;;;;;;27.99;46.54;101128.97;4969816;28;20560;-64
2021/08/23 09:09:21;;;;;;;1.83;1.17;;;;;;;27.77;47.12;101124.59;4970022;28;20050;-64
2021/08/23 09:12:01;;;;;;;4.30;1.95;;;;;;;27.62;47.41;101130.03;4970336;28;20057;-64
2021/08/23 09:14:28;;;;;;;3.65;1.52;;;;;;;27.71;47.02;101118.09;4969960;28;20047;-64
2021/08/23 09:17:06;;;;;;;4.60;1.40;;;;;;;27.94;46.17;101119.78;4970212;28;20059;-65
2021/08/23 09:19:34;;;;;;;2.40;1.20;;;;;;;29.13;43.22;101112.78;4969692;28;20054;-64
2021/08/23 09:22:09;;;;;;;2.38;1.20;;;;;;;29.94;41.44;101094.94;4969752;28;20452;-64
2021/08/23 09:24:39;;;;;;;4.03;1.33;;;;;;;30.50;40.24;101098.25;4969926;28;20062;-64
2021/08/23 09:27:09;;;;;;;1.38;1.17;;;;;;;30.87;39.86;101093.19;4969787;28;20051;-64
2021/08/23 09:29:59;;;;;;;2.05;1.50;;;;;;;31.17;38.81;101089.97;4969902;28;20051;-64
2021/08/23 09:32:26;;;;;;;1.60;1.20;;;;;;;31.49;38.37;101096.25;4972487;28;20137;-65
2021/08/23 09:34:53;;;;;;;2.92;1.35;;;;;;;31.19;38.61;101088.69;4974108;28;20050;-65
2021/08/23 09:37:28;;;;;;;2.55;1.17;;;;;;;30.10;40.93;101089.09;4973841;28;20053;-64
2021/08/23 09:39:55;;;;;;;2.03;1.17;;;;;;;30.14;40.27;101094.94;4973718;28;20043;-64
2021/08/23 09:42:24;;;;;;;1.23;1.00;;;;;;;31.03;38.72;101095.44;4973884;28;20519;-64
2021/08/23 09:44:52;;;;;;;1.98;1.23;;;;;;;31.49;37.75;101098.13;4974000;28;20047;-64
2021/08/23 09:47:30;;;;;;;2.80;1.58;;;;;;;31.06;38.35;101103.16;4973506;28;20058;-65
2021/08/23 09:49:57;;;;;;;4.28;1.70;;;;;;;31.90;36.58;101097.66;4973271;28;20047;-64
2021/08/23 09:52:31;;;;;;;2.25;1.50;;;;;;;31.98;36.55;101096.56;4973446;28;20130;-65
2021/08/23 09:55:04;;;;;;;2.45;1.58;;;;;;;32.22;35.65;101092.22;4973498;28;20046;-65
2021/08/23 09:57:34;;;;;;;3.90;1.63;;;;;;;32.57;35.08;101099.00;4973385;28;20398;-65
2021/08/23 10:00:04;;;;;;;1.70;1.60;;;;;;;32.78;34.87;101095.00;4973227;28;20065;-65
2021/08/23 10:02:32;;;;;;;3.25;1.60;;;;;;;32.87;34.65;101095.53;4973046;28;20046;-65
2021/08/23 10:05:00;;;;;;;2.33;1.60;;;;;;;33.46;33.71;101087.69;4973032;28;20050;-65
2021/08/23 10:07:29;;;;;;;3.40;1.60;;;;;;;33.18;34.27;101085.56;4973027;28;20063;-65
2021/08/23 10:10:01;;;;;;;1.83;1.60;;;;;;;32.56;35.15;101084.56;4973462;28;20102;-65
2021/08/23 10:12:29;;;;;;;4.93;1.58;;;;;;;31.83;36.19;101094.16;4973212;28;20064;-64
2021/08/23 10:14:56;;;;;;;3.55;1.60;;;;;;;32.63;34.75;101089.09;4973188;28;20055;-65
2021/08/23 10:17:23;;;;;;;2.28;1.80;;;;;;;33.21;34.03;101082.38;4972942;28;20042;-65
2021/08/23 10:19:50;;;;;;;1.92;1.67;;;;;;;33.64;32.90;101072.38;4972924;28;20481;-65
2021/08/23 10:22:17;;;;;;;2.22;1.60;;;;;;;33.70;33.13;101076.88;4973035;28;20054;-65
2021/08/23 10:24:46;;;;;;;3.60;1.63;;;;;;;33.80;32.77;101068.97;4972729;28;20059;-65
2021/08/23 10:27:23;;;;;;;3.40;2.30;;;;;;;33.88;32.49;101076.00;4972637;28;20051;-65
2021/08/23 10:29:50;;;;;;;2.75;1.85;;;;;;;34.23;32.19;101060.72;4972783;28;20457;-65
2021/08/23 10:32:18;;;;;;;3.10;2.10;;;;;;;34.49;31.67;101060.25;4972643;28;20047;-64
2021/08/23 10:34:45;;;;;;;2.28;1.77;;;;;;;34.77;31.52;101061.38;4972651;28;20050;-65
2021/08/23 10:37:29;;;;;;;2.40;1.83;;;;;;;33.70;33.29;101058.66;4972895;28;20058;-65
2021/08/23 10:40:01;;;;;;;2.10;1.77;;;;;;;34.00;33.16;101057.78;4972671;28;20527;-65
2021/08/23 10:42:39;;;;;;;2.25;1.80;;;;;;;34.50;31.78;101047.47;4972803;28;20054;-65
2021/08/23 10:45:11;;;;;;;3.05;1.85;;;;;;;34.81;31.25;101050.81;4972400;28;20053;-65
2021/08/23 10:47:38;;;;;;;5.10;1.80;;;;;;;35.08;30.98;101042.91;4972267;28;20140;-65
2021/08/23 10:50:07;;;;;;;4.13;2.00;;;;;;;35.18;30.84;101039.53;4972433;28;20050;-65
2021/08/23 10:52:36;;;;;;;3.30;2.03;;;;;;;35.52;30.17;101039.63;4972557;28;20090;-65
2021/08/23 10:55:07;;;;;;;2.58;1.70;;;;;;;35.66;30.16;101029.22;4972296;28;20062;-65
2021/08/23 10:57:34;;;;;;;6.30;2.10;;;;;;;35.59;30.05;101026.66;4972216;28;20047;-65
2021/08/23 11:00:15;;;;;;;2.28;1.83;;;;;;;35.71;29.65;101017.56;4972060;28;20055;-65
2021/08/23 11:02:42;;;;;;;3.28;1.88;;;;;;;35.73;29.66;101023.56;4972396;28;20114;-65
2021/08/23 11:05:19;;;;;;;4.00;1.75;;;;;;;35.87;29.29;101035.00;4972304;28;20183;-65
2021/08/23 11:07:57;;;;;;;4.22;1.83;;;;;;;35.80;29.39;101030.53;4972441;28;20082;-65
2021/08/23 11:10:26;;;;;;;2.55;1.88;;;;;;;35.76;28.92;101026.63;4971964;28;20039;-65
2021/08/23 11:12:55;;;;;;;2.03;1.50;;;;;;;35.76;28.80;101032.09;4972162;28;20051;-65
2021/08/23 11:15:26;;;;;;;2.42;1.77;;;;;;;35.85;28.38;101023.50;4972430;28;20133;-65
2021/08/23 11:18:02;;;;;;;2.95;2.00;;;;;;;35.81;28.79;101025.91;4971983;28;20122;-65
2021/08/23 11:20:34;;;;;;;2.38;2.05;;;;;;;36.13;27.99;101026.13;4971777;28;20047;-65
2021/08/23 11:23:04;;;;;;;2.28;1.83;;;;;;;36.15;28.28;101028.63;4971773;28;20055;-65
2021/08/23 11:25:36;;;;;;;4.35;1.65;;;;;;;36.24;27.96;101027.09;4971798;28;20051;-65
2021/08/23 11:28:17;;;;;;;2.75;1.80;;;;;;;36.21;27.99;101032.25;4971584;28;20050;-65
2021/08/23 11:30:47;;;;;;;2.67;1.67;;;;;;;36.24;27.62;101032.56;4971553;28;20051;-65